aviador You're here:

KMGJ Decoded Metar

MONTGOMERY in NY, USA
Report Time2018-07-23 15:29:00
UTC Time2018-07-23 15:42:47
Flight Rules vfr VFR
Wind160° at 10 Gusting to 15 kt
W.Decomp.*RWY 21: 8.1 kt HW 5.9 kt LCW
RWY 26: 0.7 kt HW 10 kt LCW
W.Rank160° ranks 25
Current wind is above 160° avg. (5.7)
Visibility9999 m
Phenomena:N/A
Clouds:Few 016 Hf
Scattered 023 Hf
Broken 085 Hf
Expected CloudBase > 800 ft AGL from Temp-Dew spread
Ceiling8,500 ft
Temp26°C (ISA +12)
Dew Point24°C (89% RH)
QNH1020 hPa
Density Alt1,864 ft
Elevation354 ft
Report Wrong Elevation
Raw Report
KMGJ 231529Z AUTO 16010G15KT 10SM FEW016 SCT023 BKN085 26/24 A3011
RMK AO2 RAB03E15 P0000 T02610239=

Extra information for KMGJ:More info

Metar Taf Metar & Taf Last 4 Metars F.Rules Stats Wind Profile Meteogram Temp Stats Airport Information Weather charts Add Link Nearby VenuesMetar ALERT Operation Metar Decoded Social comments

AIRNAV info for KMGJ